Terminal Aerodrome Forecast
Issued by NWS Shreveport, LA

Home | Current Version | Previous Version | Text Only | Print | Product List | Glossary On
Versions: 1 2 3 4 5 6 7 8 9 10 11 12 13 14 15 16
000
FTUS44 KSHV 240543
TAFSHV
TAF
KSHV 240543Z 2406/2506 VRB03KT P6SM BKN130 BKN250
     FM240900 VRB03KT P6SM SCT150 BKN250
     FM241500 26005KT P6SM BKN250
     FM241700 VRB05KT P6SM SCT045 BKN250
     FM242100 VRB06KT P6SM VCTS BKN050CB BKN250
     FM250300 13004KT P6SM FEW060 BKN120 BKN250=

USA.gov is the U.S. government's official web portal to all federal, state and local government web resources and services.